sensor_id;sensor_type;location;lat;lon;timestamp;P1;durP1;ratioP1;P2;durP2;ratioP2
46084;SDS011;31823;47.032;8.310;2023-06-26T00:00:12;12.73;;;9.60;;
46084;SDS011;31823;47.032;8.310;2023-06-26T00:02:40;12.40;;;9.38;;
46084;SDS011;31823;47.032;8.310;2023-06-26T00:05:06;15.27;;;9.25;;
46084;SDS011;31823;47.032;8.310;2023-06-26T00:07:31;11.07;;;8.50;;
46084;SDS011;31823;47.032;8.310;2023-06-26T00:10:00;10.18;;;8.82;;
46084;SDS011;31823;47.032;8.310;2023-06-26T00:12:26;11.25;;;8.95;;
46084;SDS011;31823;47.032;8.310;2023-06-26T00:14:52;12.63;;;8.82;;
46084;SDS011;31823;47.032;8.310;2023-06-26T00:17:17;10.32;;;8.65;;
46084;SDS011;31823;47.032;8.310;2023-06-26T00:19:43;10.38;;;8.30;;
46084;SDS011;31823;47.032;8.310;2023-06-26T00:22:08;13.15;;;8.75;;
46084;SDS011;31823;47.032;8.310;2023-06-26T00:24:34;11.02;;;9.07;;
46084;SDS011;31823;47.032;8.310;2023-06-26T00:26:59;11.13;;;8.82;;
46084;SDS011;31823;47.032;8.310;2023-06-26T00:29:25;15.63;;;9.00;;
46084;SDS011;31823;47.032;8.310;2023-06-26T00:31:51;12.40;;;9.45;;
46084;SDS011;31823;47.032;8.310;2023-06-26T00:34:16;12.10;;;9.55;;
46084;SDS011;31823;47.032;8.310;2023-06-26T00:36:42;14.70;;;8.80;;
46084;SDS011;31823;47.032;8.310;2023-06-26T00:39:10;11.23;;;8.60;;
46084;SDS011;31823;47.032;8.310;2023-06-26T00:41:36;13.18;;;8.95;;
46084;SDS011;31823;47.032;8.310;2023-06-26T00:44:02;10.93;;;9.32;;
46084;SDS011;31823;47.032;8.310;2023-06-26T00:46:29;13.23;;;9.70;;
46084;SDS011;31823;47.032;8.310;2023-06-26T00:48:54;11.80;;;9.02;;
46084;SDS011;31823;47.032;8.310;2023-06-26T00:51:22;15.65;;;9.35;;
46084;SDS011;31823;47.032;8.310;2023-06-26T00:53:47;13.85;;;9.27;;
46084;SDS011;31823;47.032;8.310;2023-06-26T00:56:14;12.95;;;9.75;;
46084;SDS011;31823;47.032;8.310;2023-06-26T00:58:42;12.80;;;9.52;;
46084;SDS011;31823;47.032;8.310;2023-06-26T01:01:07;13.63;;;10.15;;
46084;SDS011;31823;47.032;8.310;2023-06-26T01:03:39;13.57;;;9.40;;
46084;SDS011;31823;47.032;8.310;2023-06-26T01:06:04;13.93;;;10.35;;
46084;SDS011;31823;47.032;8.310;2023-06-26T01:08:31;12.27;;;9.43;;
46084;SDS011;31823;47.032;8.310;2023-06-26T01:10:56;11.57;;;9.10;;
46084;SDS011;31823;47.032;8.310;2023-06-26T01:13:23;12.82;;;9.30;;
46084;SDS011;31823;47.032;8.310;2023-06-26T01:15:49;12.88;;;8.93;;
46084;SDS011;31823;47.032;8.310;2023-06-26T01:18:16;12.25;;;10.13;;
46084;SDS011;31823;47.032;8.310;2023-06-26T01:20:42;11.20;;;9.25;;
46084;SDS011;31823;47.032;8.310;2023-06-26T01:28:37;13.80;;;9.05;;
46084;SDS011;31823;47.032;8.310;2023-06-26T01:31:05;16.35;;;9.52;;
46084;SDS011;31823;47.032;8.310;2023-06-26T01:33:32;12.88;;;9.52;;
46084;SDS011;31823;47.032;8.310;2023-06-26T01:35:58;13.50;;;9.15;;
46084;SDS011;31823;47.032;8.310;2023-06-26T01:38:23;11.77;;;9.73;;
46084;SDS011;31823;47.032;8.310;2023-06-26T01:40:49;13.95;;;9.80;;
46084;SDS011;31823;47.032;8.310;2023-06-26T01:43:18;12.95;;;9.88;;
46084;SDS011;31823;47.032;8.310;2023-06-26T01:46:00;17.52;;;9.88;;
46084;SDS011;31823;47.032;8.310;2023-06-26T01:48:35;13.05;;;11.25;;
46084;SDS011;31823;47.032;8.310;2023-06-26T01:51:09;14.68;;;11.27;;
46084;SDS011;31823;47.032;8.310;2023-06-26T01:53:39;14.27;;;12.30;;
46084;SDS011;31823;47.032;8.310;2023-06-26T01:56:13;17.20;;;13.13;;
46084;SDS011;31823;47.032;8.310;2023-06-26T01:58:41;17.15;;;13.98;;
46084;SDS011;31823;47.032;8.310;2023-06-26T02:01:10;16.23;;;12.75;;
46084;SDS011;31823;47.032;8.310;2023-06-26T02:03:36;16.95;;;12.73;;
46084;SDS011;31823;47.032;8.310;2023-06-26T02:06:01;16.80;;;13.05;;
46084;SDS011;31823;47.032;8.310;2023-06-26T02:08:27;15.32;;;12.38;;
46084;SDS011;31823;47.032;8.310;2023-06-26T02:10:53;17.88;;;13.85;;
46084;SDS011;31823;47.032;8.310;2023-06-26T02:13:18;18.33;;;13.05;;
46084;SDS011;31823;47.032;8.310;2023-06-26T02:15:44;17.38;;;12.48;;
46084;SDS011;31823;47.032;8.310;2023-06-26T02:18:12;17.05;;;12.32;;
46084;SDS011;31823;47.032;8.310;2023-06-26T02:20:37;15.40;;;12.38;;
46084;SDS011;31823;47.032;8.310;2023-06-26T02:23:04;15.63;;;11.77;;
46084;SDS011;31823;47.032;8.310;2023-06-26T02:25:29;14.00;;;11.52;;
46084;SDS011;31823;47.032;8.310;2023-06-26T02:27:55;15.55;;;12.13;;
46084;SDS011;31823;47.032;8.310;2023-06-26T02:30:20;16.17;;;10.95;;
46084;SDS011;31823;47.032;8.310;2023-06-26T02:32:46;16.05;;;11.63;;
46084;SDS011;31823;47.032;8.310;2023-06-26T02:35:11;15.05;;;10.23;;
46084;SDS011;31823;47.032;8.310;2023-06-26T02:37:37;14.77;;;11.07;;
46084;SDS011;31823;47.032;8.310;2023-06-26T02:40:03;13.60;;;10.25;;
46084;SDS011;31823;47.032;8.310;2023-06-26T02:42:29;12.52;;;10.32;;
46084;SDS011;31823;47.032;8.310;2023-06-26T02:44:56;14.45;;;11.02;;
46084;SDS011;31823;47.032;8.310;2023-06-26T02:47:22;12.65;;;10.50;;
46084;SDS011;31823;47.032;8.310;2023-06-26T02:49:47;18.17;;;11.45;;
46084;SDS011;31823;47.032;8.310;2023-06-26T02:52:13;14.30;;;10.75;;
46084;SDS011;31823;47.032;8.310;2023-06-26T02:54:38;13.32;;;10.82;;
46084;SDS011;31823;47.032;8.310;2023-06-26T02:57:04;16.92;;;11.40;;
46084;SDS011;31823;47.032;8.310;2023-06-26T02:59:30;13.73;;;11.00;;
46084;SDS011;31823;47.032;8.310;2023-06-26T03:01:55;16.35;;;11.27;;
46084;SDS011;31823;47.032;8.310;2023-06-26T03:04:21;18.67;;;11.43;;
46084;SDS011;31823;47.032;8.310;2023-06-26T03:06:47;14.20;;;10.88;;
46084;SDS011;31823;47.032;8.310;2023-06-26T03:09:12;14.73;;;11.15;;
46084;SDS011;31823;47.032;8.310;2023-06-26T03:11:38;17.15;;;11.75;;
46084;SDS011;31823;47.032;8.310;2023-06-26T03:14:03;13.80;;;11.13;;
46084;SDS011;31823;47.032;8.310;2023-06-26T03:16:29;14.00;;;10.55;;
46084;SDS011;31823;47.032;8.310;2023-06-26T03:18:54;13.68;;;10.63;;
46084;SDS011;31823;47.032;8.310;2023-06-26T03:21:20;15.32;;;11.52;;
46084;SDS011;31823;47.032;8.310;2023-06-26T03:23:46;13.75;;;10.45;;
46084;SDS011;31823;47.032;8.310;2023-06-26T03:26:11;13.93;;;10.90;;
46084;SDS011;31823;47.032;8.310;2023-06-26T03:28:39;14.30;;;10.85;;
46084;SDS011;31823;47.032;8.310;2023-06-26T03:31:05;15.93;;;11.70;;
46084;SDS011;31823;47.032;8.310;2023-06-26T03:33:30;15.23;;;11.73;;
46084;SDS011;31823;47.032;8.310;2023-06-26T03:35:56;15.23;;;11.35;;
46084;SDS011;31823;47.032;8.310;2023-06-26T03:38:22;13.60;;;10.82;;
46084;SDS011;31823;47.032;8.310;2023-06-26T03:40:48;12.50;;;10.55;;
46084;SDS011;31823;47.032;8.310;2023-06-26T03:43:14;17.80;;;10.23;;
46084;SDS011;31823;47.032;8.310;2023-06-26T03:45:40;12.52;;;10.75;;
46084;SDS011;31823;47.032;8.310;2023-06-26T03:48:05;14.65;;;9.98;;
46084;SDS011;31823;47.032;8.310;2023-06-26T03:50:33;13.52;;;10.60;;
46084;SDS011;31823;47.032;8.310;2023-06-26T03:52:58;13.73;;;10.50;;
46084;SDS011;31823;47.032;8.310;2023-06-26T03:55:24;15.45;;;10.18;;
46084;SDS011;31823;47.032;8.310;2023-06-26T03:57:50;15.05;;;10.65;;
46084;SDS011;31823;47.032;8.310;2023-06-26T04:00:15;16.40;;;10.30;;
46084;SDS011;31823;47.032;8.310;2023-06-26T04:02:41;16.33;;;11.32;;
46084;SDS011;31823;47.032;8.310;2023-06-26T04:05:07;14.52;;;10.93;;
46084;SDS011;31823;47.032;8.310;2023-06-26T04:07:32;13.82;;;10.35;;
46084;SDS011;31823;47.032;8.310;2023-06-26T04:09:59;13.27;;;10.20;;
46084;SDS011;31823;47.032;8.310;2023-06-26T04:12:25;14.93;;;11.27;;
46084;SDS011;31823;47.032;8.310;2023-06-26T04:14:50;14.85;;;10.50;;
46084;SDS011;31823;47.032;8.310;2023-06-26T04:17:16;12.30;;;10.00;;
46084;SDS011;31823;47.032;8.310;2023-06-26T04:19:41;13.23;;;10.35;;
46084;SDS011;31823;47.032;8.310;2023-06-26T04:22:07;15.20;;;10.70;;
46084;SDS011;31823;47.032;8.310;2023-06-26T04:24:32;14.27;;;10.95;;
46084;SDS011;31823;47.032;8.310;2023-06-26T04:26:58;15.82;;;11.55;;
46084;SDS011;31823;47.032;8.310;2023-06-26T04:29:25;14.70;;;11.48;;
46084;SDS011;31823;47.032;8.310;2023-06-26T04:31:52;12.13;;;10.38;;
46084;SDS011;31823;47.032;8.310;2023-06-26T04:34:22;14.75;;;10.70;;
46084;SDS011;31823;47.032;8.310;2023-06-26T04:36:48;14.23;;;10.52;;
46084;SDS011;31823;47.032;8.310;2023-06-26T04:39:15;15.93;;;10.98;;
46084;SDS011;31823;47.032;8.310;2023-06-26T04:41:41;15.93;;;11.07;;
46084;SDS011;31823;47.032;8.310;2023-06-26T04:44:07;13.50;;;10.50;;
46084;SDS011;31823;47.032;8.310;2023-06-26T04:46:33;15.73;;;10.20;;
46084;SDS011;31823;47.032;8.310;2023-06-26T04:48:58;14.23;;;11.02;;
46084;SDS011;31823;47.032;8.310;2023-06-26T04:51:24;16.67;;;10.15;;
46084;SDS011;31823;47.032;8.310;2023-06-26T04:53:52;11.45;;;9.77;;
46084;SDS011;31823;47.032;8.310;2023-06-26T04:56:17;13.95;;;10.48;;
46084;SDS011;31823;47.032;8.310;2023-06-26T04:58:43;13.45;;;12.00;;
46084;SDS011;31823;47.032;8.310;2023-06-26T05:01:08;13.35;;;11.15;;
46084;SDS011;31823;47.032;8.310;2023-06-26T05:03:35;13.98;;;10.65;;
46084;SDS011;31823;47.032;8.310;2023-06-26T05:06:01;13.32;;;10.32;;
46084;SDS011;31823;47.032;8.310;2023-06-26T05:08:27;12.65;;;10.55;;
46084;SDS011;31823;47.032;8.310;2023-06-26T05:10:53;15.70;;;10.48;;
46084;SDS011;31823;47.032;8.310;2023-06-26T05:13:22;15.63;;;10.95;;
46084;SDS011;31823;47.032;8.310;2023-06-26T05:15:48;17.75;;;11.07;;
46084;SDS011;31823;47.032;8.310;2023-06-26T05:18:14;13.77;;;10.57;;
46084;SDS011;31823;47.032;8.310;2023-06-26T05:20:40;12.50;;;10.27;;
46084;SDS011;31823;47.032;8.310;2023-06-26T05:23:06;13.82;;;10.70;;
46084;SDS011;31823;47.032;8.310;2023-06-26T05:25:32;12.52;;;10.20;;
46084;SDS011;31823;47.032;8.310;2023-06-26T05:27:59;13.48;;;10.30;;
46084;SDS011;31823;47.032;8.310;2023-06-26T05:30:25;13.05;;;10.00;;
46084;SDS011;31823;47.032;8.310;2023-06-26T05:32:52;16.92;;;10.50;;
46084;SDS011;31823;47.032;8.310;2023-06-26T05:35:22;19.05;;;10.13;;
46084;SDS011;31823;47.032;8.310;2023-06-26T05:37:48;11.50;;;9.55;;
46084;SDS011;31823;47.032;8.310;2023-06-26T05:40:15;15.27;;;10.75;;
46084;SDS011;31823;47.032;8.310;2023-06-26T05:42:42;12.27;;;10.30;;
46084;SDS011;31823;47.032;8.310;2023-06-26T05:45:08;14.07;;;9.90;;
46084;SDS011;31823;47.032;8.310;2023-06-26T05:47:34;12.27;;;10.10;;
46084;SDS011;31823;47.032;8.310;2023-06-26T05:50:00;12.55;;;10.27;;
46084;SDS011;31823;47.032;8.310;2023-06-26T05:52:26;18.40;;;11.43;;
46084;SDS011;31823;47.032;8.310;2023-06-26T05:54:52;14.73;;;11.32;;
46084;SDS011;31823;47.032;8.310;2023-06-26T05:57:18;12.93;;;9.55;;
46084;SDS011;31823;47.032;8.310;2023-06-26T05:59:44;14.32;;;11.13;;
46084;SDS011;31823;47.032;8.310;2023-06-26T06:02:11;15.40;;;9.82;;
46084;SDS011;31823;47.032;8.310;2023-06-26T06:04:37;14.75;;;10.45;;
46084;SDS011;31823;47.032;8.310;2023-06-26T06:07:03;14.82;;;10.60;;
46084;SDS011;31823;47.032;8.310;2023-06-26T06:09:29;11.82;;;9.50;;
46084;SDS011;31823;47.032;8.310;2023-06-26T06:11:54;12.35;;;10.30;;
46084;SDS011;31823;47.032;8.310;2023-06-26T06:14:20;11.57;;;9.57;;
46084;SDS011;31823;47.032;8.310;2023-06-26T06:16:45;12.48;;;9.38;;
46084;SDS011;31823;47.032;8.310;2023-06-26T06:19:11;11.48;;;9.43;;
46084;SDS011;31823;47.032;8.310;2023-06-26T06:21:38;12.85;;;9.43;;
46084;SDS011;31823;47.032;8.310;2023-06-26T06:24:04;11.32;;;9.90;;
46084;SDS011;31823;47.032;8.310;2023-06-26T06:26:31;15.25;;;10.10;;
46084;SDS011;31823;47.032;8.310;2023-06-26T06:28:57;12.27;;;10.20;;
46084;SDS011;31823;47.032;8.310;2023-06-26T06:31:22;12.55;;;10.38;;
46084;SDS011;31823;47.032;8.310;2023-06-26T06:33:48;11.40;;;9.10;;
46084;SDS011;31823;47.032;8.310;2023-06-26T06:36:13;12.18;;;9.77;;
46084;SDS011;31823;47.032;8.310;2023-06-26T06:38:42;14.23;;;9.60;;
46084;SDS011;31823;47.032;8.310;2023-06-26T06:41:08;14.27;;;9.85;;
46084;SDS011;31823;47.032;8.310;2023-06-26T06:43:34;14.02;;;10.18;;
46084;SDS011;31823;47.032;8.310;2023-06-26T06:46:00;11.20;;;9.20;;
46084;SDS011;31823;47.032;8.310;2023-06-26T06:48:26;10.07;;;9.00;;
46084;SDS011;31823;47.032;8.310;2023-06-26T06:50:52;12.73;;;9.02;;
46084;SDS011;31823;47.032;8.310;2023-06-26T06:53:18;10.27;;;8.88;;
46084;SDS011;31823;47.032;8.310;2023-06-26T06:55:45;11.57;;;9.15;;
46084;SDS011;31823;47.032;8.310;2023-06-26T06:58:11;10.70;;;8.50;;
46084;SDS011;31823;47.032;8.310;2023-06-26T07:00:41;13.02;;;8.80;;
46084;SDS011;31823;47.032;8.310;2023-06-26T07:03:07;11.82;;;9.35;;
46084;SDS011;31823;47.032;8.310;2023-06-26T07:05:33;11.10;;;8.98;;
46084;SDS011;31823;47.032;8.310;2023-06-26T07:07:59;11.00;;;8.77;;
46084;SDS011;31823;47.032;8.310;2023-06-26T07:10:24;11.98;;;8.80;;
46084;SDS011;31823;47.032;8.310;2023-06-26T07:12:50;13.35;;;9.70;;
46084;SDS011;31823;47.032;8.310;2023-06-26T07:15:16;9.63;;;8.60;;
46084;SDS011;31823;47.032;8.310;2023-06-26T07:17:41;11.52;;;8.57;;
46084;SDS011;31823;47.032;8.310;2023-06-26T07:20:07;12.48;;;8.98;;
46084;SDS011;31823;47.032;8.310;2023-06-26T07:22:35;14.68;;;9.25;;
46084;SDS011;31823;47.032;8.310;2023-06-26T07:25:01;11.55;;;8.43;;
46084;SDS011;31823;47.032;8.310;2023-06-26T07:27:26;11.45;;;8.63;;
46084;SDS011;31823;47.032;8.310;2023-06-26T07:29:52;10.38;;;8.52;;
46084;SDS011;31823;47.032;8.310;2023-06-26T07:32:17;10.60;;;8.20;;
46084;SDS011;31823;47.032;8.310;2023-06-26T07:34:43;11.75;;;9.23;;
46084;SDS011;31823;47.032;8.310;2023-06-26T07:37:08;10.13;;;8.90;;
46084;SDS011;31823;47.032;8.310;2023-06-26T07:39:34;10.82;;;9.55;;
46084;SDS011;31823;47.032;8.310;2023-06-26T07:42:00;10.65;;;8.40;;
46084;SDS011;31823;47.032;8.310;2023-06-26T07:44:25;10.25;;;9.15;;
46084;SDS011;31823;47.032;8.310;2023-06-26T07:46:51;10.13;;;8.05;;
46084;SDS011;31823;47.032;8.310;2023-06-26T07:49:17;13.85;;;8.85;;
46084;SDS011;31823;47.032;8.310;2023-06-26T07:51:42;12.45;;;8.68;;
46084;SDS011;31823;47.032;8.310;2023-06-26T07:54:08;11.60;;;9.00;;
46084;SDS011;31823;47.032;8.310;2023-06-26T07:56:35;13.40;;;9.05;;
46084;SDS011;31823;47.032;8.310;2023-06-26T07:59:20;10.73;;;9.13;;
46084;SDS011;31823;47.032;8.310;2023-06-26T08:01:48;11.02;;;9.05;;
46084;SDS011;31823;47.032;8.310;2023-06-26T08:04:13;11.70;;;9.30;;
46084;SDS011;31823;47.032;8.310;2023-06-26T08:06:39;9.30;;;7.90;;
46084;SDS011;31823;47.032;8.310;2023-06-26T08:09:05;14.60;;;9.85;;
46084;SDS011;31823;47.032;8.310;2023-06-26T08:11:32;11.18;;;8.45;;
46084;SDS011;31823;47.032;8.310;2023-06-26T08:13:58;11.48;;;8.10;;
46084;SDS011;31823;47.032;8.310;2023-06-26T08:16:24;10.63;;;9.10;;
46084;SDS011;31823;47.032;8.310;2023-06-26T08:18:50;11.98;;;9.07;;
46084;SDS011;31823;47.032;8.310;2023-06-26T08:21:15;10.57;;;8.98;;
46084;SDS011;31823;47.032;8.310;2023-06-26T08:23:41;11.45;;;8.23;;
46084;SDS011;31823;47.032;8.310;2023-06-26T08:26:07;9.50;;;7.85;;
46084;SDS011;31823;47.032;8.310;2023-06-26T08:28:32;11.07;;;8.32;;
46084;SDS011;31823;47.032;8.310;2023-06-26T08:30:58;10.18;;;8.57;;
46084;SDS011;31823;47.032;8.310;2023-06-26T08:33:24;11.90;;;8.18;;
46084;SDS011;31823;47.032;8.310;2023-06-26T08:35:50;10.68;;;8.30;;
46084;SDS011;31823;47.032;8.310;2023-06-26T08:38:15;9.85;;;8.20;;
46084;SDS011;31823;47.032;8.310;2023-06-26T08:40:41;9.50;;;8.05;;
46084;SDS011;31823;47.032;8.310;2023-06-26T08:43:06;11.07;;;8.00;;
46084;SDS011;31823;47.032;8.310;2023-06-26T08:45:32;9.30;;;7.80;;
46084;SDS011;31823;47.032;8.310;2023-06-26T08:47:59;8.60;;;7.68;;
46084;SDS011;31823;47.032;8.310;2023-06-26T08:50:26;9.68;;;8.02;;
46084;SDS011;31823;47.032;8.310;2023-06-26T08:53:04;8.90;;;7.90;;
46084;SDS011;31823;47.032;8.310;2023-06-26T08:55:40;8.45;;;7.15;;
46084;SDS011;31823;47.032;8.310;2023-06-26T08:58:06;8.55;;;7.38;;
46084;SDS011;31823;47.032;8.310;2023-06-26T09:00:32;11.25;;;7.43;;
46084;SDS011;31823;47.032;8.310;2023-06-26T09:02:59;10.43;;;8.60;;
46084;SDS011;31823;47.032;8.310;2023-06-26T09:05:26;9.10;;;7.78;;
46084;SDS011;31823;47.032;8.310;2023-06-26T09:07:56;10.13;;;6.82;;
46084;SDS011;31823;47.032;8.310;2023-06-26T09:10:22;10.10;;;7.65;;
46084;SDS011;31823;47.032;8.310;2023-06-26T09:12:47;9.65;;;8.02;;
46084;SDS011;31823;47.032;8.310;2023-06-26T09:15:19;10.55;;;7.95;;
46084;SDS011;31823;47.032;8.310;2023-06-26T09:17:45;9.05;;;7.40;;
46084;SDS011;31823;47.032;8.310;2023-06-26T09:20:12;9.15;;;7.43;;
46084;SDS011;31823;47.032;8.310;2023-06-26T09:22:40;9.73;;;7.85;;
46084;SDS011;31823;47.032;8.310;2023-06-26T09:25:12;10.77;;;7.35;;
46084;SDS011;31823;47.032;8.310;2023-06-26T09:27:38;10.68;;;8.48;;
46084;SDS011;31823;47.032;8.310;2023-06-26T09:30:05;11.27;;;8.38;;
46084;SDS011;31823;47.032;8.310;2023-06-26T09:32:37;11.68;;;8.00;;
46084;SDS011;31823;47.032;8.310;2023-06-26T09:35:03;8.65;;;7.45;;
46084;SDS011;31823;47.032;8.310;2023-06-26T09:37:29;8.75;;;7.80;;
46084;SDS011;31823;47.032;8.310;2023-06-26T09:39:54;10.25;;;7.45;;
46084;SDS011;31823;47.032;8.310;2023-06-26T09:42:20;12.30;;;7.28;;
46084;SDS011;31823;47.032;8.310;2023-06-26T09:44:48;10.90;;;7.15;;
46084;SDS011;31823;47.032;8.310;2023-06-26T09:47:18;10.63;;;6.90;;
46084;SDS011;31823;47.032;8.310;2023-06-26T09:49:44;6.70;;;6.03;;
46084;SDS011;31823;47.032;8.310;2023-06-26T09:52:14;8.52;;;6.75;;
46084;SDS011;31823;47.032;8.310;2023-06-26T09:54:44;8.88;;;6.20;;
46084;SDS011;31823;47.032;8.310;2023-06-26T09:57:11;8.27;;;6.47;;
46084;SDS011;31823;47.032;8.310;2023-06-26T09:59:38;10.32;;;6.70;;
46084;SDS011;31823;47.032;8.310;2023-06-26T10:02:05;9.50;;;7.38;;
46084;SDS011;31823;47.032;8.310;2023-06-26T10:04:31;8.25;;;6.53;;
46084;SDS011;31823;47.032;8.310;2023-06-26T10:06:57;9.90;;;6.43;;
46084;SDS011;31823;47.032;8.310;2023-06-26T10:09:26;8.40;;;6.95;;
46084;SDS011;31823;47.032;8.310;2023-06-26T10:14:39;9.13;;;6.55;;
46084;SDS011;31823;47.032;8.310;2023-06-26T10:17:08;11.25;;;7.60;;
46084;SDS011;31823;47.032;8.310;2023-06-26T10:19:35;11.15;;;6.80;;
46084;SDS011;31823;47.032;8.310;2023-06-26T10:22:06;10.90;;;7.40;;
46084;SDS011;31823;47.032;8.310;2023-06-26T10:24:35;10.32;;;7.10;;
46084;SDS011;31823;47.032;8.310;2023-06-26T10:27:02;7.65;;;6.38;;
46084;SDS011;31823;47.032;8.310;2023-06-26T10:29:33;7.70;;;6.53;;
46084;SDS011;31823;47.032;8.310;2023-06-26T10:32:00;7.63;;;6.68;;
46084;SDS011;31823;47.032;8.310;2023-06-26T10:34:29;7.20;;;6.47;;
46084;SDS011;31823;47.032;8.310;2023-06-26T10:36:59;12.27;;;7.30;;
46084;SDS011;31823;47.032;8.310;2023-06-26T10:39:48;10.90;;;7.32;;
46084;SDS011;31823;47.032;8.310;2023-06-26T10:42:15;7.40;;;6.38;;
46084;SDS011;31823;47.032;8.310;2023-06-26T10:44:45;6.95;;;6.13;;
46084;SDS011;31823;47.032;8.310;2023-06-26T10:47:12;8.00;;;6.63;;
46084;SDS011;31823;47.032;8.310;2023-06-26T10:50:15;8.48;;;6.30;;
46084;SDS011;31823;47.032;8.310;2023-06-26T10:52:44;9.00;;;6.85;;
46084;SDS011;31823;47.032;8.310;2023-06-26T10:55:28;11.45;;;6.95;;
46084;SDS011;31823;47.032;8.310;2023-06-26T10:57:54;9.07;;;6.55;;
46084;SDS011;31823;47.032;8.310;2023-06-26T11:00:20;7.25;;;6.55;;
46084;SDS011;31823;47.032;8.310;2023-06-26T11:02:52;8.38;;;6.78;;
46084;SDS011;31823;47.032;8.310;2023-06-26T11:05:24;7.18;;;5.80;;
46084;SDS011;31823;47.032;8.310;2023-06-26T11:08:07;7.00;;;6.18;;
46084;SDS011;31823;47.032;8.310;2023-06-26T11:10:47;10.98;;;6.00;;
46084;SDS011;31823;47.032;8.310;2023-06-26T11:13:14;7.05;;;6.30;;
46084;SDS011;31823;47.032;8.310;2023-06-26T11:15:42;8.00;;;7.15;;
46084;SDS011;31823;47.032;8.310;2023-06-26T11:18:09;8.60;;;6.95;;
46084;SDS011;31823;47.032;8.310;2023-06-26T11:20:35;9.10;;;7.20;;
46084;SDS011;31823;47.032;8.310;2023-06-26T11:23:01;8.50;;;7.43;;
46084;SDS011;31823;47.032;8.310;2023-06-26T11:25:28;7.18;;;6.43;;
46084;SDS011;31823;47.032;8.310;2023-06-26T11:27:55;7.95;;;6.68;;
46084;SDS011;31823;47.032;8.310;2023-06-26T11:30:24;7.38;;;6.53;;
46084;SDS011;31823;47.032;8.310;2023-06-26T11:32:50;8.30;;;6.72;;
46084;SDS011;31823;47.032;8.310;2023-06-26T11:35:22;10.95;;;6.90;;
46084;SDS011;31823;47.032;8.310;2023-06-26T11:37:55;7.88;;;6.82;;
46084;SDS011;31823;47.032;8.310;2023-06-26T11:40:22;7.85;;;6.50;;
46084;SDS011;31823;47.032;8.310;2023-06-26T11:42:52;7.95;;;6.68;;
46084;SDS011;31823;47.032;8.310;2023-06-26T11:45:19;8.85;;;7.30;;
46084;SDS011;31823;47.032;8.310;2023-06-26T11:47:45;7.40;;;6.38;;
46084;SDS011;31823;47.032;8.310;2023-06-26T11:50:17;9.55;;;6.45;;
46084;SDS011;31823;47.032;8.310;2023-06-26T11:52:43;8.25;;;6.55;;
46084;SDS011;31823;47.032;8.310;2023-06-26T11:55:09;8.73;;;7.15;;
46084;SDS011;31823;47.032;8.310;2023-06-26T11:57:35;11.80;;;6.55;;
46084;SDS011;31823;47.032;8.310;2023-06-26T12:00:11;8.25;;;7.03;;
46084;SDS011;31823;47.032;8.310;2023-06-26T12:02:41;7.55;;;6.63;;
46084;SDS011;31823;47.032;8.310;2023-06-26T12:05:07;10.52;;;7.18;;
46084;SDS011;31823;47.032;8.310;2023-06-26T12:07:33;8.23;;;6.50;;
46084;SDS011;31823;47.032;8.310;2023-06-26T12:09:59;10.80;;;6.28;;
46084;SDS011;31823;47.032;8.310;2023-06-26T12:12:26;7.82;;;6.57;;
46084;SDS011;31823;47.032;8.310;2023-06-26T12:14:51;10.48;;;6.40;;
46084;SDS011;31823;47.032;8.310;2023-06-26T12:17:17;9.90;;;6.35;;
46084;SDS011;31823;47.032;8.310;2023-06-26T12:19:48;7.90;;;6.75;;
46084;SDS011;31823;47.032;8.310;2023-06-26T12:22:15;7.57;;;6.18;;
46084;SDS011;31823;47.032;8.310;2023-06-26T12:24:41;8.40;;;6.35;;
46084;SDS011;31823;47.032;8.310;2023-06-26T12:27:11;7.80;;;6.68;;
46084;SDS011;31823;47.032;8.310;2023-06-26T12:29:39;8.35;;;6.32;;
46084;SDS011;31823;47.032;8.310;2023-06-26T12:32:09;8.40;;;6.90;;
46084;SDS011;31823;47.032;8.310;2023-06-26T12:34:35;8.13;;;6.53;;
46084;SDS011;31823;47.032;8.310;2023-06-26T12:37:03;7.53;;;6.70;;
46084;SDS011;31823;47.032;8.310;2023-06-26T12:39:48;8.50;;;7.00;;
46084;SDS011;31823;47.032;8.310;2023-06-26T12:42:16;10.32;;;6.38;;
46084;SDS011;31823;47.032;8.310;2023-06-26T12:44:43;8.15;;;6.55;;
46084;SDS011;31823;47.032;8.310;2023-06-26T12:47:09;12.27;;;6.72;;
46084;SDS011;31823;47.032;8.310;2023-06-26T12:49:38;10.23;;;7.03;;
46084;SDS011;31823;47.032;8.310;2023-06-26T12:52:06;10.45;;;7.80;;
46084;SDS011;31823;47.032;8.310;2023-06-26T12:54:36;13.25;;;8.05;;
46084;SDS011;31823;47.032;8.310;2023-06-26T12:57:05;12.23;;;7.53;;
46084;SDS011;31823;47.032;8.310;2023-06-26T12:59:31;9.68;;;8.30;;
46084;SDS011;31823;47.032;8.310;2023-06-26T13:01:57;14.38;;;7.55;;
46084;SDS011;31823;47.032;8.310;2023-06-26T13:04:23;10.63;;;8.27;;
46084;SDS011;31823;47.032;8.310;2023-06-26T13:06:49;9.68;;;8.23;;
46084;SDS011;31823;47.032;8.310;2023-06-26T13:09:15;12.18;;;8.43;;
46084;SDS011;31823;47.032;8.310;2023-06-26T13:11:42;10.07;;;7.82;;
46084;SDS011;31823;47.032;8.310;2023-06-26T13:14:08;9.75;;;8.00;;
46084;SDS011;31823;47.032;8.310;2023-06-26T13:16:33;10.60;;;7.82;;
46084;SDS011;31823;47.032;8.310;2023-06-26T13:18:59;10.13;;;8.18;;
46084;SDS011;31823;47.032;8.310;2023-06-26T13:21:28;10.13;;;8.73;;
46084;SDS011;31823;47.032;8.310;2023-06-26T13:23:54;13.30;;;8.55;;
46084;SDS011;31823;47.032;8.310;2023-06-26T13:26:21;11.90;;;8.18;;
46084;SDS011;31823;47.032;8.310;2023-06-26T13:28:47;9.85;;;8.57;;
46084;SDS011;31823;47.032;8.310;2023-06-26T13:31:13;12.27;;;8.35;;
46084;SDS011;31823;47.032;8.310;2023-06-26T13:33:39;9.70;;;8.20;;
46084;SDS011;31823;47.032;8.310;2023-06-26T13:36:04;11.65;;;7.97;;
46084;SDS011;31823;47.032;8.310;2023-06-26T13:38:32;12.27;;;8.00;;
46084;SDS011;31823;47.032;8.310;2023-06-26T13:40:58;11.98;;;9.65;;
46084;SDS011;31823;47.032;8.310;2023-06-26T13:43:27;12.38;;;9.10;;
46084;SDS011;31823;47.032;8.310;2023-06-26T13:45:54;10.68;;;8.55;;
46084;SDS011;31823;47.032;8.310;2023-06-26T13:48:19;11.35;;;8.30;;
46084;SDS011;31823;47.032;8.310;2023-06-26T13:50:45;13.98;;;8.77;;
46084;SDS011;31823;47.032;8.310;2023-06-26T13:53:11;9.95;;;8.15;;
46084;SDS011;31823;47.032;8.310;2023-06-26T13:55:37;11.02;;;8.38;;
46084;SDS011;31823;47.032;8.310;2023-06-26T13:58:04;9.43;;;7.40;;
46084;SDS011;31823;47.032;8.310;2023-06-26T14:00:31;12.15;;;8.50;;
46084;SDS011;31823;47.032;8.310;2023-06-26T14:02:59;10.48;;;7.90;;
46084;SDS011;31823;47.032;8.310;2023-06-26T14:05:25;9.20;;;7.35;;
46084;SDS011;31823;47.032;8.310;2023-06-26T14:07:50;10.90;;;8.70;;
46084;SDS011;31823;47.032;8.310;2023-06-26T14:10:16;9.02;;;7.85;;
46084;SDS011;31823;47.032;8.310;2023-06-26T14:12:41;10.35;;;8.00;;
46084;SDS011;31823;47.032;8.310;2023-06-26T14:15:07;9.13;;;7.72;;
46084;SDS011;31823;47.032;8.310;2023-06-26T14:17:33;11.07;;;7.93;;
46084;SDS011;31823;47.032;8.310;2023-06-26T14:19:58;11.05;;;8.60;;
46084;SDS011;31823;47.032;8.310;2023-06-26T14:22:24;9.35;;;7.95;;
46084;SDS011;31823;47.032;8.310;2023-06-26T14:24:50;10.00;;;8.27;;
46084;SDS011;31823;47.032;8.310;2023-06-26T14:27:16;9.43;;;8.20;;
46084;SDS011;31823;47.032;8.310;2023-06-26T14:29:41;11.10;;;8.30;;
46084;SDS011;31823;47.032;8.310;2023-06-26T14:32:07;8.95;;;7.38;;
46084;SDS011;31823;47.032;8.310;2023-06-26T14:34:32;12.93;;;8.38;;
46084;SDS011;31823;47.032;8.310;2023-06-26T14:36:58;9.50;;;8.30;;
46084;SDS011;31823;47.032;8.310;2023-06-26T14:39:24;10.95;;;8.07;;